createdAt,value
2023-05-01T00:02:01.931Z,4.45
2023-05-01T00:04:28.732Z,6.88
2023-05-01T00:06:55.377Z,5.47
2023-05-01T00:09:21.962Z,5.05
2023-05-01T00:11:48.552Z,5.47
2023-05-01T00:14:15.222Z,6.25
2023-05-01T00:16:41.960Z,6.40
2023-05-01T00:19:08.575Z,6.65
2023-05-01T00:21:35.146Z,5.47
2023-05-01T00:24:01.801Z,6.53
2023-05-01T00:26:31.182Z,4.85
2023-05-01T00:28:58.317Z,5.97
2023-05-01T00:31:25.882Z,8.80
2023-05-01T00:33:52.720Z,5.68
2023-05-01T00:36:19.884Z,7.15
2023-05-01T00:38:46.475Z,6.65
2023-05-01T00:41:13.308Z,6.20
2023-05-01T00:43:39.882Z,4.95
2023-05-01T00:46:07.820Z,5.53
2023-05-01T00:48:34.470Z,7.38
2023-05-01T00:51:02.242Z,4.82
2023-05-01T00:53:29.299Z,5.28
2023-05-01T00:55:57.455Z,5.78
2023-05-01T00:58:24.062Z,5.15
2023-05-01T01:00:50.737Z,5.03
2023-05-01T01:03:17.355Z,5.60
2023-05-01T01:05:52.236Z,5.13
2023-05-01T01:08:39.159Z,6.95
2023-05-01T01:11:19.764Z,4.90
2023-05-01T01:13:51.192Z,6.20
2023-05-01T01:16:39.679Z,5.28
2023-05-01T01:19:22.155Z,4.80
2023-05-01T01:21:53.138Z,4.35
2023-05-01T01:24:52.679Z,4.90
2023-05-01T01:27:57.112Z,4.50
2023-05-01T01:30:24.069Z,4.43
2023-05-01T01:33:09.276Z,5.90
2023-05-01T01:35:36.931Z,6.20
2023-05-01T01:38:10.086Z,5.30
2023-05-01T01:40:45.658Z,5.80
2023-05-01T01:43:13.532Z,5.30
2023-05-01T01:45:43.163Z,5.32
2023-05-01T01:48:11.652Z,5.43
2023-05-01T01:50:39.233Z,6.47
2023-05-01T01:53:07.035Z,5.65
2023-05-01T01:55:35.061Z,8.65
2023-05-01T01:58:03.064Z,4.63
2023-05-01T02:00:30.808Z,5.90
2023-05-01T02:02:59.335Z,6.57
2023-05-01T02:05:26.406Z,5.13
2023-05-01T02:07:55.547Z,6.10
2023-05-01T02:10:22.792Z,6.25
2023-05-01T02:12:51.704Z,6.55
2023-05-01T02:15:19.098Z,5.78
2023-05-01T02:17:46.017Z,7.18
2023-05-01T02:20:13.744Z,5.57
2023-05-01T02:22:41.024Z,8.38
2023-05-01T02:25:12.612Z,6.10
2023-05-01T02:27:45.559Z,5.35
2023-05-01T02:30:12.501Z,9.25
2023-05-01T02:32:39.117Z,6.05
2023-05-01T02:35:06.048Z,5.45
2023-05-01T02:37:32.742Z,5.80
2023-05-01T02:40:00.568Z,6.32
2023-05-01T02:42:28.212Z,7.32
2023-05-01T02:45:01.476Z,5.53
2023-05-01T02:47:30.555Z,8.88
2023-05-01T02:49:57.633Z,6.25
2023-05-01T02:52:24.454Z,6.18
2023-05-01T02:55:00.598Z,8.70
2023-05-01T02:57:27.864Z,7.82
2023-05-01T02:59:54.627Z,8.20
2023-05-01T03:02:21.651Z,8.40
2023-05-01T03:04:48.634Z,6.65
2023-05-01T03:07:15.415Z,5.50
2023-05-01T03:09:42.054Z,6.82
2023-05-01T03:12:08.693Z,9.32
2023-05-01T03:14:35.350Z,8.98
2023-05-01T03:17:02.105Z,9.20
2023-05-01T03:19:28.722Z,9.57
2023-05-01T03:21:55.324Z,10.30
2023-05-01T03:24:21.993Z,10.80
2023-05-01T03:26:48.662Z,9.40
2023-05-01T03:29:15.372Z,12.65
2023-05-01T03:31:42.727Z,11.15
2023-05-01T03:34:10.528Z,9.05
2023-05-01T03:36:37.114Z,8.95
2023-05-01T03:39:04.840Z,9.65
2023-05-01T03:41:50.046Z,8.70
2023-05-01T03:44:23.728Z,8.75
2023-05-01T03:46:50.302Z,8.25
2023-05-01T03:49:22.733Z,8.98
2023-05-01T03:51:50.381Z,8.13
2023-05-01T03:54:18.065Z,7.40
2023-05-01T03:56:56.509Z,7.68
2023-05-01T03:59:23.985Z,7.70
2023-05-01T04:01:50.963Z,6.95
2023-05-01T04:04:17.582Z,7.60
2023-05-01T04:06:49.786Z,6.53
2023-05-01T04:09:16.587Z,8.63
2023-05-01T04:11:43.187Z,8.98
2023-05-01T04:14:10.271Z,7.18
2023-05-01T04:16:37.317Z,9.77
2023-05-01T04:19:04.113Z,6.45
2023-05-01T04:21:33.960Z,8.05
2023-05-01T04:24:00.542Z,7.60
2023-05-01T04:26:28.084Z,7.75
2023-05-01T04:28:54.710Z,7.30
2023-05-01T04:31:24.608Z,8.65
2023-05-01T04:33:51.702Z,8.63
2023-05-01T04:36:18.991Z,9.60
2023-05-01T04:38:45.551Z,9.23
2023-05-01T04:41:12.950Z,12.07
2023-05-01T04:43:39.568Z,9.15
2023-05-01T04:46:07.455Z,10.45
2023-05-01T04:48:34.122Z,8.10
2023-05-01T04:51:01.194Z,9.70
2023-05-01T04:53:31.912Z,8.73
2023-05-01T04:55:58.770Z,10.13
2023-05-01T04:58:25.362Z,9.68
2023-05-01T05:00:58.226Z,8.13
2023-05-01T05:03:24.998Z,8.43
2023-05-01T05:05:52.031Z,9.45
2023-05-01T05:08:19.324Z,9.77
2023-05-01T05:11:00.477Z,8.25
2023-05-01T05:13:46.839Z,10.38
2023-05-01T05:16:13.577Z,9.63
2023-05-01T05:18:40.500Z,7.72
2023-05-01T05:21:08.625Z,9.52
2023-05-01T05:23:35.616Z,7.43
2023-05-01T05:26:02.827Z,8.52
2023-05-01T05:28:31.124Z,8.38
2023-05-01T05:30:57.869Z,7.82
2023-05-01T05:33:25.540Z,9.13
2023-05-01T05:35:52.483Z,8.25
2023-05-01T05:38:22.367Z,9.57
2023-05-01T05:40:54.109Z,8.32
2023-05-01T05:43:21.209Z,8.90
2023-05-01T05:45:47.848Z,8.73
2023-05-01T05:48:14.611Z,8.63
2023-05-01T05:50:41.359Z,8.15
2023-05-01T05:53:09.864Z,7.25
2023-05-01T05:55:37.410Z,8.23
2023-05-01T05:58:06.618Z,7.18
2023-05-01T06:00:33.288Z,9.85
2023-05-01T06:03:04.205Z,8.45
2023-05-01T06:05:32.369Z,7.38
2023-05-01T06:07:59.034Z,9.23
2023-05-01T06:10:25.890Z,8.55
2023-05-01T06:12:57.832Z,9.32
2023-05-01T06:15:31.938Z,8.18
2023-05-01T06:17:58.617Z,10.60
2023-05-01T06:20:25.246Z,8.55
2023-05-01T06:22:52.789Z,9.38
2023-05-01T06:25:28.540Z,12.30
2023-05-01T06:27:55.344Z,18.40
2023-05-01T06:30:23.582Z,8.57
2023-05-01T06:32:50.522Z,10.25
2023-05-01T06:35:17.371Z,7.97
2023-05-01T06:37:43.959Z,8.20
2023-05-01T06:40:12.164Z,9.43
2023-05-01T06:42:39.665Z,10.48
2023-05-01T06:45:07.572Z,13.00
2023-05-01T06:47:34.259Z,8.75
2023-05-01T06:50:05.059Z,9.13
2023-05-01T06:52:33.620Z,8.00
2023-05-01T06:55:00.255Z,8.75
2023-05-01T06:57:27.317Z,8.90
2023-05-01T06:59:54.437Z,8.75
2023-05-01T07:02:21.336Z,8.38
2023-05-01T07:04:48.012Z,7.85
2023-05-01T07:07:14.658Z,8.50
2023-05-01T07:09:41.340Z,7.80
2023-05-01T07:12:08.048Z,8.57
2023-05-01T07:14:35.455Z,9.60
2023-05-01T07:17:02.661Z,8.02
2023-05-01T09:08:54.526Z,7.78
2023-05-01T09:11:22.826Z,8.50
2023-05-01T09:13:49.381Z,7.72
2023-05-01T09:16:17.343Z,8.35
2023-05-01T09:18:44.869Z,9.52
2023-05-01T09:21:12.384Z,7.10
2023-05-01T09:23:40.769Z,6.45
2023-05-01T09:26:08.152Z,9.93
2023-05-01T09:28:44.978Z,7.75
2023-05-01T09:31:22.238Z,6.82
2023-05-01T09:33:57.479Z,7.03
2023-05-01T09:36:25.802Z,6.03
2023-05-01T09:38:52.561Z,7.88
2023-05-01T09:41:20.994Z,7.07
2023-05-01T09:43:52.671Z,6.80
2023-05-01T09:46:19.370Z,8.93
2023-05-01T09:48:56.864Z,7.32
2023-05-01T09:51:28.273Z,7.82
2023-05-01T09:56:22.613Z,8.60
2023-05-01T09:58:50.944Z,8.65
2023-05-01T10:01:18.247Z,5.95
2023-05-01T10:03:45.988Z,8.13
2023-05-01T10:06:12.862Z,6.50
2023-05-01T10:08:47.584Z,7.35
2023-05-01T10:11:14.250Z,7.43
2023-05-01T10:13:40.839Z,7.32
2023-05-01T10:16:08.656Z,6.85
2023-05-01T10:18:55.581Z,5.93
2023-05-01T10:21:42.712Z,7.43
2023-05-01T10:24:10.103Z,6.00
2023-05-01T10:26:37.182Z,6.03
2023-05-01T10:29:04.304Z,8.30
2023-05-01T10:31:32.979Z,6.95
2023-05-01T10:34:03.209Z,6.65
2023-05-01T10:36:39.765Z,6.60
2023-05-01T10:39:07.055Z,6.85
2023-05-01T10:41:58.510Z,4.95
2023-05-01T10:44:27.226Z,5.47
2023-05-01T10:46:54.701Z,5.72
2023-05-01T10:49:22.116Z,6.15
2023-05-01T10:52:04.172Z,5.15
2023-05-01T10:54:32.350Z,5.43
2023-05-01T10:57:01.136Z,4.97
2023-05-01T10:59:59.877Z,5.18
2023-05-01T11:02:26.867Z,4.72
2023-05-01T11:04:54.161Z,5.00
2023-05-01T11:07:22.368Z,4.63
2023-05-01T11:09:59.081Z,5.35
2023-05-01T11:12:55.291Z,8.10
2023-05-01T11:15:28.934Z,5.55
2023-05-01T11:17:55.975Z,5.60
2023-05-01T11:20:25.864Z,5.05
2023-05-01T11:22:53.895Z,5.50
2023-05-01T11:25:22.312Z,5.40
2023-05-01T11:27:49.659Z,7.13
2023-05-01T11:30:16.506Z,6.22
2023-05-01T11:32:44.715Z,5.28
2023-05-01T11:35:21.108Z,5.97
2023-05-01T11:37:48.374Z,5.93
2023-05-01T11:40:28.948Z,4.93
2023-05-01T11:43:06.153Z,6.13
2023-05-01T11:45:33.915Z,6.85
2023-05-01T11:48:04.460Z,5.68
2023-05-01T11:50:32.799Z,4.82
2023-05-01T11:52:59.463Z,4.78
2023-05-01T11:55:33.309Z,6.38
2023-05-01T11:58:00.469Z,5.40
2023-05-01T12:00:28.027Z,6.05
2023-05-01T12:03:04.400Z,6.50
2023-05-01T12:05:31.671Z,5.78
2023-05-01T12:08:13.462Z,5.53
2023-05-01T12:10:43.361Z,7.22
2023-05-01T12:13:12.170Z,4.88
2023-05-01T12:15:43.424Z,5.43
2023-05-01T12:18:10.132Z,7.43
2023-05-01T12:20:52.357Z,5.18
2023-05-01T12:23:40.148Z,5.00
2023-05-01T12:26:17.204Z,5.30
2023-05-01T12:28:59.984Z,6.65
2023-05-01T12:31:27.471Z,5.03
2023-05-01T12:33:58.697Z,6.63
2023-05-01T12:36:27.522Z,5.80
2023-05-01T12:39:06.385Z,6.97
2023-05-01T12:41:41.961Z,5.40
2023-05-01T12:44:35.156Z,5.22
2023-05-01T12:47:03.462Z,4.97
2023-05-01T12:49:31.539Z,7.10
2023-05-01T12:52:00.906Z,5.20
2023-05-01T12:54:31.967Z,4.53
2023-05-01T12:57:21.537Z,6.43
2023-05-01T12:59:50.508Z,5.25
2023-05-01T13:02:18.098Z,5.35
2023-05-01T13:04:45.233Z,5.18
2023-05-01T13:07:13.220Z,7.68
2023-05-01T13:09:39.874Z,5.40
2023-05-01T13:12:06.974Z,4.45
2023-05-01T13:14:38.976Z,6.43
2023-05-01T13:17:09.364Z,4.10
2023-05-01T13:19:36.786Z,6.10
2023-05-01T13:22:03.590Z,4.30
2023-05-01T13:24:41.160Z,5.60
2023-05-01T13:27:12.482Z,4.20
2023-05-01T13:32:06.375Z,7.22
2023-05-01T13:34:34.206Z,4.20
2023-05-01T13:37:02.130Z,3.10
2023-05-01T13:39:29.290Z,2.90
2023-05-01T13:41:56.190Z,3.45
2023-05-01T13:44:22.976Z,3.15
2023-05-01T13:46:49.830Z,2.42
2023-05-01T13:49:18.168Z,3.30
2023-05-01T13:51:46.581Z,3.35
2023-05-01T13:54:13.945Z,3.63
2023-05-01T13:56:41.274Z,3.60
2023-05-01T13:59:08.541Z,3.63
2023-05-01T14:01:42.949Z,3.95
2023-05-01T14:04:13.116Z,3.10
2023-05-01T14:06:43.336Z,3.67
2023-05-01T14:09:10.504Z,3.58
2023-05-01T14:11:48.359Z,3.42
2023-05-01T14:14:16.014Z,3.42
2023-05-01T14:16:43.930Z,3.15
2023-05-01T14:19:10.530Z,3.30
2023-05-01T14:21:40.532Z,4.22
2023-05-01T14:24:08.446Z,4.10
2023-05-01T14:26:37.466Z,3.50
2023-05-01T14:29:03.990Z,4.03
2023-05-01T14:31:30.931Z,3.58
2023-05-01T14:33:59.559Z,3.60
2023-05-01T14:36:28.419Z,5.38
2023-05-01T14:39:02.700Z,4.93
2023-05-01T14:41:29.960Z,4.50
2023-05-01T14:43:57.080Z,6.18
2023-05-01T14:46:30.848Z,4.82
2023-05-01T14:48:58.273Z,4.03
2023-05-01T14:51:24.978Z,2.75
2023-05-01T14:53:51.586Z,3.60
2023-05-01T19:14:21.726Z,4.82
2023-05-01T19:16:48.526Z,5.03
2023-05-01T19:19:15.279Z,4.45
2023-05-01T19:21:41.918Z,4.75
2023-05-01T19:24:08.558Z,4.78
2023-05-01T19:26:35.402Z,4.70
2023-05-01T19:29:02.028Z,4.60
2023-05-01T19:31:28.704Z,5.68
2023-05-01T19:33:55.394Z,4.15
2023-05-01T19:36:22.386Z,4.85
2023-05-01T19:38:49.045Z,6.15
2023-05-01T19:41:15.663Z,4.70
2023-05-01T19:43:42.319Z,4.85
2023-05-01T19:46:09.694Z,7.35
2023-05-01T19:48:36.380Z,5.68
2023-05-01T19:51:03.062Z,5.85
2023-05-01T19:53:31.144Z,5.43
2023-05-01T19:55:58.988Z,4.88
2023-05-01T19:58:27.822Z,4.43
2023-05-01T20:00:59.152Z,5.55
2023-05-01T20:03:25.957Z,4.70
2023-05-01T20:05:52.793Z,4.85
2023-05-01T20:08:19.517Z,5.57
2023-05-01T20:10:46.285Z,6.35
2023-05-01T20:13:13.074Z,6.05
2023-05-01T20:15:39.855Z,6.25
2023-05-01T20:18:06.838Z,6.22
2023-05-01T20:20:35.004Z,6.82
2023-05-01T20:23:11.438Z,6.97
2023-05-01T20:25:38.594Z,5.60
2023-05-01T20:28:06.309Z,6.00
2023-05-01T20:30:33.134Z,6.13
2023-05-01T20:32:59.887Z,7.45
2023-05-01T20:35:26.624Z,5.90
2023-05-01T20:37:53.406Z,6.40
2023-05-01T20:40:20.153Z,5.90
2023-05-01T20:42:46.792Z,5.50
2023-05-01T20:45:13.432Z,4.50
2023-05-01T20:47:40.127Z,5.55
2023-05-01T20:50:07.584Z,4.93
2023-05-01T20:52:34.248Z,4.97
2023-05-01T20:55:00.893Z,4.70
2023-05-01T20:57:27.759Z,4.05
2023-05-01T20:59:54.384Z,4.57
2023-05-01T21:02:20.980Z,6.25
2023-05-01T21:04:47.649Z,4.35
2023-05-01T21:07:14.327Z,5.35
2023-05-01T21:09:45.308Z,4.47
2023-05-01T21:12:12.323Z,4.93
2023-05-01T21:14:39.789Z,3.78
2023-05-01T21:17:06.973Z,5.22
2023-05-01T21:19:42.090Z,4.90
2023-05-01T21:22:21.221Z,4.47
2023-05-01T21:24:51.603Z,5.22
2023-05-01T21:27:18.387Z,4.33
2023-05-01T21:29:47.366Z,3.90
2023-05-01T21:32:14.362Z,4.03
2023-05-01T21:34:40.962Z,4.50
2023-05-01T21:37:08.185Z,3.83
2023-05-01T21:39:36.129Z,3.35
2023-05-01T21:42:03.269Z,6.75
2023-05-01T21:44:30.166Z,4.47
2023-05-01T21:46:58.292Z,4.40
2023-05-01T21:49:28.110Z,4.82
2023-05-01T21:51:59.319Z,5.38
2023-05-01T21:54:28.167Z,3.97
2023-05-01T21:57:02.597Z,4.43
2023-05-01T21:59:38.358Z,4.68
2023-05-01T22:02:07.632Z,4.53
2023-05-01T22:04:35.068Z,4.38
2023-05-01T22:07:01.963Z,3.50
2023-05-01T22:09:28.620Z,4.10
2023-05-01T22:11:55.358Z,4.45
2023-05-01T22:14:21.971Z,5.25
2023-05-01T22:16:48.700Z,4.15
2023-05-01T22:19:15.880Z,3.65
2023-05-01T22:21:42.780Z,5.07
2023-05-01T22:24:09.375Z,4.68
2023-05-01T22:26:36.087Z,4.57
2023-05-01T22:29:03.390Z,5.57
2023-05-01T22:31:30.038Z,4.57
2023-05-01T22:33:56.657Z,4.05
2023-05-01T22:36:23.352Z,5.57
2023-05-01T22:38:49.942Z,4.95
2023-05-01T22:41:16.644Z,4.30
2023-05-01T22:43:43.252Z,4.20
2023-05-01T22:46:09.919Z,4.32
2023-05-01T22:48:36.555Z,4.65
2023-05-01T22:51:03.175Z,4.40
2023-05-01T22:53:31.152Z,4.32
2023-05-01T22:55:57.782Z,4.30
2023-05-01T22:58:24.393Z,3.40
2023-05-01T23:00:51.039Z,4.25
2023-05-01T23:03:17.845Z,4.00
2023-05-01T23:05:44.644Z,5.15
2023-05-01T23:08:11.305Z,4.88
2023-05-01T23:10:40.958Z,4.93
2023-05-01T23:13:17.560Z,3.72
2023-05-01T23:15:46.390Z,5.45
2023-05-01T23:18:15.672Z,4.82
2023-05-01T23:20:44.039Z,5.22
2023-05-01T23:23:13.847Z,4.97
2023-05-01T23:25:45.123Z,4.47
2023-05-01T23:28:12.064Z,4.25
2023-05-01T23:30:40.568Z,5.40
2023-05-01T23:33:07.300Z,4.60
2023-05-01T23:35:33.961Z,8.15
2023-05-01T23:38:00.603Z,6.43
2023-05-01T23:40:27.386Z,4.63
2023-05-01T23:42:55.086Z,7.93
2023-05-01T23:45:21.765Z,4.95
2023-05-01T23:47:48.356Z,8.18
2023-05-01T23:50:14.987Z,4.30
2023-05-01T23:52:41.827Z,4.35
2023-05-01T23:55:08.519Z,5.25
2023-05-01T23:57:35.162Z,4.47
